ESGJESSV

Guest
Details From ESGJ - Jonkoping
To ESSV - Visby
Flight Number -
Tags generated
Created
Modified
Stats Distance 138 nm / 255 km
Max Altitude 11,600 ft / 3,536 m
Waypoints 3
Social Downloads 1
Likes 0
Share VATSIM

Download

Looking for another format? Having issues loading an existing format? Contact us
Advertisement - Login to hide

Notes

Basic altitude profile: - Ascent Rate: 2500ft/min - Ascent Speed: 250kts - Cruise Altitude: 35000ft - Cruise Speed: 420kts - Descent Rate: 1500ft/min - Descent Speed: 250kts Options: - Use NATs: yes - Use PACOTS: yes - Use low airways: yes - Use high airways: yes

Route

ESGJ MOKNI ESSV

ID Type Via Altitude Latitude Longitude Leg Dist Tot Dist Heading (true) Name
O ESGJ APT - 0 ft / 0 m 57.75505˚ 14.07110˚ - 0 nm - Jonkoping
MOKNI FIX - 11,600 ft / 3,536 m 57.64631˚ 15.06806˚ 32 nm 32 nm 101° / 102° -
O ESSV APT - 0 ft / 0 m 57.65641˚ 18.34245˚ 105 nm 137 nm 88° / 91° Visby

Altitude Profile

Advertisement - Login to hide

ESGJ

Details ICAO ESGJ (JKG)
Name Jonkoping
Region Sweden
Timezone Europe/Stockholm (UTC+1.0)
Stats Elevation 741 ft / 226 m (AMSL)
Location 57.755046° 14.071101°
Runways 2
Magnetic Variation 4.384° E

METAR

ESGJ 110920Z 05006KT 9999 FEW010 SCT024 BKN031 M01/M02 Q0990

Decode

TAF

Not found

Departure Runways

ID Width Length Bearing (true) Bearing (mag) Surface Threshold Offset Overrun Length
01 148 ft / 45 m 7,218 ft / 2,200 m 18.04° 13.66° Asphalt 0 ft / 0 m 212 ft / 65 m
11 82 ft / 25 m 1,960 ft / 598 m 114.43° 110.05° Dirt 0 ft / 0 m 0 ft / 0 m
19 148 ft / 45 m 7,218 ft / 2,200 m 198.05° 193.67° Asphalt 0 ft / 0 m 117 ft / 36 m
29 82 ft / 25 m 1,960 ft / 598 m 294.44° 290.06° Dirt 0 ft / 0 m 0 ft / 0 m

ESSV

Details ICAO ESSV (VBY)
Name Visby
Region Sweden
Timezone Europe/Stockholm (UTC+1.0)
Stats Elevation 164 ft / 50 m (AMSL)
Location 57.656405° 18.342448°
Runways 2
Magnetic Variation 5.912° E

METAR

ESSV 110850Z 10006KT CAVOK M01/M02 Q0992 R21/79//37

Decode

TAF

Not found

Destination Runways

ID Width Length Bearing (true) Bearing (mag) Surface Threshold Offset Overrun Length
03 148 ft / 45 m 6,552 ft / 1,997 m 20.95° 15.04° Asphalt 0 ft / 0 m 0 ft / 0 m
10 131 ft / 40 m 3,599 ft / 1,097 m 101.41° 95.50° Grass 0 ft / 0 m 0 ft / 0 m
21 148 ft / 45 m 6,552 ft / 1,997 m 200.96° 195.05° Asphalt 0 ft / 0 m 0 ft / 0 m
28 131 ft / 40 m 3,599 ft / 1,097 m 281.43° 275.52° Grass 0 ft / 0 m 0 ft / 0 m

Approach Navaids

Runway Type Ident Frequency Range Bearing (true) Bearing (mag) Slope Elevation
21 Localiser SV 110.30 MHz 18 nm / 33 km 200.95° 195.04° - 164 ft / 50 m (AMSL)
21 Glidescope SV 110.30 MHz 10 nm / 19 km 200.95° 195.04° 3.00° 164 ft / 50 m (AMSL)